Time,TemperatureF,DewpointF,PressureIn,WindDirection,WindDirectionDegrees,WindSpeedMPH,WindSpeedGustMPH,Humidity,HourlyPrecipIn,Conditions,Clouds,dailyrainin,SoftwareType,DateUTC
2013-02-19 00:00:00,21.8,3.3,30.12,West,267,0.0,6.0,44,0.00,,,0.00,WeatherCatV1.10B1784,2013-02-19 05:00:00,
2013-02-19 00:05:00,21.9,3.4,30.12,WSW,250,0.0,1.0,44,0.00,,,0.00,WeatherCatV1.10B1784,2013-02-19 05:05:00,
2013-02-19 00:10:00,21.8,3.3,30.12,WSW,257,0.0,7.0,44,0.00,,,0.00,WeatherCatV1.10B1784,2013-02-19 05:10:00,
2013-02-19 00:15:00,22.1,3.1,30.12,WSW,257,0.0,5.0,43,0.00,,,0.00,WeatherCatV1.10B1784,2013-02-19 05:15:00,
2013-02-19 00:20:00,22.3,3.2,30.12,SW,232,5.0,8.0,43,0.00,,,0.00,WeatherCatV1.10B1784,2013-02-19 05:20:00,
2013-02-19 00:25:00,22.5,2.9,30.12,ENE,61,0.0,5.0,42,0.00,,,0.00,WeatherCatV1.10B1784,2013-02-19 05:25:00,
2013-02-19 00:30:00,22.5,2.9,30.13,South,186,2.0,3.0,42,0.00,,,0.00,WeatherCatV1.10B1784,2013-02-19 05:30:00,
2013-02-19 00:35:00,22.4,2.8,30.13,East,100,0.0,4.0,42,0.00,,,0.00,WeatherCatV1.10B1784,2013-02-19 05:35:00,
2013-02-19 00:40:00,22.1,3.6,30.13,East,100,0.0,2.0,44,0.00,,,0.00,WeatherCatV1.10B1784,2013-02-19 05:40:00,
2013-02-19 00:45:00,21.7,3.7,30.13,East,100,0.0,0.0,45,0.00,,,0.00,WeatherCatV1.10B1784,2013-02-19 05:45:00,
2013-02-19 00:50:00,21.4,3.4,30.12,East,100,0.0,2.0,45,0.00,,,0.00,WeatherCatV1.10B1784,2013-02-19 05:50:00,
2013-02-19 00:55:00,21.3,3.8,30.13,East,100,0.0,1.0,46,0.00,,,0.00,WeatherCatV1.10B1784,2013-02-19 05:55:00,
2013-02-19 01:00:00,21.6,3.1,30.13,North,356,0.0,5.0,44,0.00,,,0.00,WeatherCatV1.10B1784,2013-02-19 06:00:00,
2013-02-19 01:05:00,22.4,3.3,30.13,SW,229,2.0,6.0,43,0.00,,,0.00,WeatherCatV1.10B1784,2013-02-19 06:05:00,
2013-02-19 01:10:00,23.2,3.0,30.13,WNW,296,0.0,2.0,41,0.00,,,0.00,WeatherCatV1.10B1784,2013-02-19 06:10:00,
2013-02-19 01:15:00,23.4,2.7,30.13,WNW,299,0.0,2.0,40,0.00,,,0.00,WeatherCatV1.10B1784,2013-02-19 06:15:00,
2013-02-19 01:20:00,23.5,2.8,30.13,SSE,149,0.0,1.0,40,0.00,,,0.00,WeatherCatV1.10B1784,2013-02-19 06:20:00,
2013-02-19 01:25:00,23.6,3.4,30.13,SSE,149,0.0,0.0,41,0.00,,,0.00,WeatherCatV1.10B1784,2013-02-19 06:25:00,
2013-02-19 01:30:00,23.4,5.2,30.13,East,91,0.0,2.0,45,0.00,,,0.00,WeatherCatV1.10B1784,2013-02-19 06:30:00,
2013-02-19 01:35:00,23.3,5.1,30.13,NW,320,0.0,6.0,45,0.00,,,0.00,WeatherCatV1.10B1784,2013-02-19 06:35:00,
2013-02-19 01:40:00,23.6,4.9,30.13,NW,323,0.0,1.0,44,0.00,,,0.00,WeatherCatV1.10B1784,2013-02-19 06:40:00,
2013-02-19 01:45:00,23.6,5.4,30.14,East,98,0.0,4.0,45,0.00,,,0.00,WeatherCatV1.10B1784,2013-02-19 06:45:00,
2013-02-19 01:50:00,24.0,5.3,30.14,WSW,257,5.0,6.0,44,0.00,,,0.00,WeatherCatV1.10B1784,2013-02-19 06:50:00,
2013-02-19 01:55:00,24.4,5.7,30.14,WSW,238,5.0,9.0,44,0.00,,,0.00,WeatherCatV1.10B1784,2013-02-19 06:55:00,
2013-02-19 02:00:00,24.7,5.4,30.14,West,267,5.0,7.0,43,0.00,,,0.00,WeatherCatV1.10B1784,2013-02-19 07:00:00,
2013-02-19 02:05:00,24.7,5.4,30.14,SSW,202,4.0,14.0,43,0.00,,,0.00,WeatherCatV1.10B1784,2013-02-19 07:05:00,
2013-02-19 02:10:00,24.8,5.5,30.13,WSW,248,1.0,3.0,43,0.00,,,0.00,WeatherCatV1.10B1784,2013-02-19 07:10:00,
2013-02-19 02:15:00,24.7,5.9,30.13,SSW,210,3.0,4.0,44,0.00,,,0.00,WeatherCatV1.10B1784,2013-02-19 07:15:00,
2013-02-19 02:20:00,24.6,5.8,30.13,WSW,244,2.0,5.0,44,0.00,,,0.00,WeatherCatV1.10B1784,2013-02-19 07:20:00,
2013-02-19 02:25:00,24.4,5.7,30.13,SW,228,3.0,6.0,44,0.00,,,0.00,WeatherCatV1.10B1784,2013-02-19 07:25:00,
2013-02-19 02:30:00,24.3,6.1,30.13,SW,219,4.0,5.0,45,0.00,,,0.00,WeatherCatV1.10B1784,2013-02-19 07:30:00,
2013-02-19 02:35:00,24.7,6.4,30.13,SW,235,3.0,5.0,45,0.00,,,0.00,WeatherCatV1.10B1784,2013-02-19 07:35:00,
2013-02-19 02:40:00,24.8,6.5,30.12,SW,227,3.0,6.0,45,0.00,,,0.00,WeatherCatV1.10B1784,2013-02-19 07:40:00,
2013-02-19 02:45:00,24.8,6.0,30.12,SW,227,0.0,4.0,44,0.00,,,0.00,WeatherCatV1.10B1784,2013-02-19 07:45:00,
2013-02-19 02:50:00,24.6,6.3,30.12,SW,227,5.0,5.0,45,0.00,,,0.00,WeatherCatV1.10B1784,2013-02-19 07:50:00,
2013-02-19 02:55:00,24.1,6.3,30.12,SW,227,0.0,0.0,46,0.00,,,0.00,WeatherCatV1.10B1784,2013-02-19 07:55:00,
2013-02-19 03:00:00,23.6,6.8,30.13,SW,227,0.0,0.0,48,0.00,,,0.00,WeatherCatV1.10B1784,2013-02-19 08:00:00,
2013-02-19 03:05:00,23.4,6.2,30.12,SW,227,0.0,2.0,47,0.00,,,0.00,WeatherCatV1.10B1784,2013-02-19 08:05:00,
2013-02-19 03:10:00,23.5,6.3,30.12,SW,229,1.0,4.0,47,0.00,,,0.00,WeatherCatV1.10B1784,2013-02-19 08:10:00,
2013-02-19 03:15:00,24.2,7.4,30.11,West,262,0.0,1.0,48,0.00,,,0.00,WeatherCatV1.10B1784,2013-02-19 08:15:00,
2013-02-19 03:20:00,24.5,7.2,30.11,West,262,0.0,0.0,47,0.00,,,0.00,WeatherCatV1.10B1784,2013-02-19 08:20:00,
2013-02-19 03:25:00,23.9,8.0,30.11,West,262,0.0,0.0,50,0.00,,,0.00,WeatherCatV1.10B1784,2013-02-19 08:25:00,
2013-02-19 03:30:00,23.1,7.7,30.10,West,262,0.0,0.0,51,0.00,,,0.00,WeatherCatV1.10B1784,2013-02-19 08:30:00,
2013-02-19 03:35:00,22.4,7.9,30.10,West,262,0.0,0.0,53,0.00,,,0.00,WeatherCatV1.10B1784,2013-02-19 08:35:00,
2013-02-19 03:40:00,21.8,6.5,30.10,West,262,0.0,0.0,51,0.00,,,0.00,WeatherCatV1.10B1784,2013-02-19 08:40:00,
2013-02-19 03:45:00,21.7,6.8,30.10,West,262,0.0,0.0,52,0.00,,,0.00,WeatherCatV1.10B1784,2013-02-19 08:45:00,
2013-02-19 03:50:00,21.6,6.7,30.10,West,262,0.0,0.0,52,0.00,,,0.00,WeatherCatV1.10B1784,2013-02-19 08:50:00,
2013-02-19 03:55:00,21.5,7.1,30.10,West,262,0.0,0.0,53,0.00,,,0.00,WeatherCatV1.10B1784,2013-02-19 08:55:00,
2013-02-19 04:00:00,21.6,8.0,30.11,West,262,0.0,0.0,55,0.00,,,0.00,WeatherCatV1.10B1784,2013-02-19 09:00:00,
2013-02-19 04:05:00,21.6,8.0,30.11,West,262,0.0,0.0,55,0.00,,,0.00,WeatherCatV1.10B1784,2013-02-19 09:05:00,
2013-02-19 04:10:00,21.6,7.6,30.10,West,262,0.0,0.0,54,0.00,,,0.00,WeatherCatV1.10B1784,2013-02-19 09:10:00,
2013-02-19 04:15:00,21.8,7.7,30.10,West,262,0.0,0.0,54,0.00,,,0.00,WeatherCatV1.10B1784,2013-02-19 09:15:00,
2013-02-19 04:20:00,21.9,7.4,30.10,West,262,0.0,0.0,53,0.00,,,0.00,WeatherCatV1.10B1784,2013-02-19 09:20:00,
2013-02-19 04:25:00,22.1,7.6,30.10,West,262,0.0,0.0,53,0.00,,,0.00,WeatherCatV1.10B1784,2013-02-19 09:25:00,
2013-02-19 04:30:00,22.2,8.1,30.09,West,262,0.0,0.0,54,0.00,,,0.00,WeatherCatV1.10B1784,2013-02-19 09:30:00,
2013-02-19 04:35:00,22.4,9.1,30.10,West,262,0.0,0.0,56,0.00,,,0.00,WeatherCatV1.10B1784,2013-02-19 09:35:00,
2013-02-19 04:40:00,22.5,8.8,30.10,West,262,0.0,0.0,55,0.00,,,0.00,WeatherCatV1.10B1784,2013-02-19 09:40:00,
2013-02-19 04:45:00,22.6,9.3,30.09,West,262,0.0,0.0,56,0.00,,,0.00,WeatherCatV1.10B1784,2013-02-19 09:45:00,
2013-02-19 04:50:00,22.7,9.8,30.10,West,262,0.0,0.0,57,0.00,,,0.00,WeatherCatV1.10B1784,2013-02-19 09:50:00,
2013-02-19 04:55:00,22.8,9.5,30.10,West,262,0.0,0.0,56,0.00,,,0.00,WeatherCatV1.10B1784,2013-02-19 09:55:00,
2013-02-19 05:00:00,22.9,9.6,30.10,West,262,0.0,0.0,56,0.00,,,0.00,WeatherCatV1.10B1784,2013-02-19 10:00:00,
2013-02-19 05:05:00,23.1,9.0,30.10,West,262,0.0,0.0,54,0.00,,,0.00,WeatherCatV1.10B1784,2013-02-19 10:05:00,
2013-02-19 05:10:00,23.2,10.6,30.10,West,262,0.0,0.0,58,0.00,,,0.00,WeatherCatV1.10B1784,2013-02-19 10:10:00,
2013-02-19 05:15:00,23.2,10.6,30.10,West,262,0.0,0.0,58,0.00,,,0.00,WeatherCatV1.10B1784,2013-02-19 10:15:00,
2013-02-19 05:20:00,23.3,10.7,30.09,West,262,0.0,0.0,58,0.00,,,0.00,WeatherCatV1.10B1784,2013-02-19 10:20:00,
2013-02-19 05:25:00,23.3,9.1,30.09,West,262,0.0,0.0,54,0.00,,,0.00,WeatherCatV1.10B1784,2013-02-19 10:25:00,
2013-02-19 05:30:00,23.4,9.2,30.09,West,262,0.0,0.0,54,0.00,,,0.00,WeatherCatV1.10B1784,2013-02-19 10:30:00,
2013-02-19 05:35:00,23.5,9.3,30.09,West,262,0.0,0.0,54,0.00,,,0.00,WeatherCatV1.10B1784,2013-02-19 10:35:00,
2013-02-19 05:40:00,23.5,9.7,30.09,West,262,0.0,0.0,55,0.00,,,0.00,WeatherCatV1.10B1784,2013-02-19 10:40:00,
2013-02-19 05:45:00,23.6,9.8,30.09,West,262,0.0,0.0,55,0.00,,,0.00,WeatherCatV1.10B1784,2013-02-19 10:45:00,
2013-02-19 05:50:00,23.5,10.1,30.09,West,262,0.0,0.0,56,0.00,,,0.00,WeatherCatV1.10B1784,2013-02-19 10:50:00,
2013-02-19 05:55:00,23.5,10.1,30.09,West,262,1.0,2.0,56,0.00,,,0.00,WeatherCatV1.10B1784,2013-02-19 10:55:00,
2013-02-19 06:00:00,23.4,10.4,30.09,West,262,0.0,0.0,57,0.00,,,0.00,WeatherCatV1.10B1784,2013-02-19 11:00:00,
2013-02-19 06:05:00,23.3,11.1,30.09,West,262,0.0,0.0,59,0.00,,,0.00,WeatherCatV1.10B1784,2013-02-19 11:05:00,
2013-02-19 06:10:00,23.1,10.9,30.09,West,262,0.0,0.0,59,0.00,,,0.00,WeatherCatV1.10B1784,2013-02-19 11:10:00,
2013-02-19 06:15:00,22.9,11.1,30.09,West,262,0.0,0.0,60,0.00,,,0.00,WeatherCatV1.10B1784,2013-02-19 11:15:00,
2013-02-19 06:20:00,22.7,12.0,30.09,West,262,0.0,0.0,63,0.00,,,0.00,WeatherCatV1.10B1784,2013-02-19 11:20:00,
2013-02-19 06:25:00,22.4,11.7,30.08,West,262,0.0,0.0,63,0.00,,,0.00,WeatherCatV1.10B1784,2013-02-19 11:25:00,
2013-02-19 06:30:00,22.1,11.5,30.08,West,262,0.0,0.0,63,0.00,,,0.00,WeatherCatV1.10B1784,2013-02-19 11:30:00,
2013-02-19 06:35:00,21.8,11.5,30.08,West,262,0.0,0.0,64,0.00,,,0.00,WeatherCatV1.10B1784,2013-02-19 11:35:00,
2013-02-19 06:40:00,21.6,10.3,30.08,West,262,0.0,0.0,61,0.00,,,0.00,WeatherCatV1.10B1784,2013-02-19 11:40:00,
2013-02-19 06:45:00,21.5,10.2,30.08,West,262,0.0,0.0,61,0.00,,,0.00,WeatherCatV1.10B1784,2013-02-19 11:45:00,
2013-02-19 06:50:00,21.5,10.5,30.08,West,262,0.0,0.0,62,0.00,,,0.00,WeatherCatV1.10B1784,2013-02-19 11:50:00,
2013-02-19 06:55:00,21.3,11.4,30.08,West,262,0.0,0.0,65,0.00,,,0.00,WeatherCatV1.10B1784,2013-02-19 11:55:00,
2013-02-19 07:00:00,21.1,10.9,30.07,West,262,0.0,0.0,64,0.00,,,0.00,WeatherCatV1.10B1784,2013-02-19 12:00:00,
2013-02-19 07:05:00,20.9,10.0,30.08,West,262,0.0,0.0,62,0.00,,,0.00,WeatherCatV1.10B1784,2013-02-19 12:05:00,
2013-02-19 07:10:00,20.9,11.0,30.07,West,262,0.0,0.0,65,0.00,,,0.00,WeatherCatV1.10B1784,2013-02-19 12:10:00,
2013-02-19 07:15:00,20.9,10.0,30.08,West,262,0.0,0.0,62,0.00,,,0.00,WeatherCatV1.10B1784,2013-02-19 12:15:00,
2013-02-19 07:20:00,21.0,10.4,30.07,West,262,0.0,0.0,63,0.00,,,0.00,WeatherCatV1.10B1784,2013-02-19 12:20:00,
2013-02-19 07:25:00,21.0,10.4,30.07,West,262,0.0,0.0,63,0.00,,,0.00,WeatherCatV1.10B1784,2013-02-19 12:25:00,
2013-02-19 07:30:00,21.1,10.9,30.07,West,262,0.0,0.0,64,0.00,,,0.00,WeatherCatV1.10B1784,2013-02-19 12:30:00,
2013-02-19 07:35:00,21.3,11.0,30.07,West,262,0.0,0.0,64,0.00,,,0.00,WeatherCatV1.10B1784,2013-02-19 12:35:00,
2013-02-19 07:40:00,21.5,10.9,30.07,West,262,0.0,0.0,63,0.00,,,0.00,WeatherCatV1.10B1784,2013-02-19 12:40:00,
2013-02-19 07:45:00,21.9,11.3,30.06,West,262,0.0,0.0,63,0.00,,,0.00,WeatherCatV1.10B1784,2013-02-19 12:45:00,
2013-02-19 07:50:00,22.4,11.0,30.06,West,262,0.0,0.0,61,0.00,,,0.00,WeatherCatV1.10B1784,2013-02-19 12:50:00,
2013-02-19 07:55:00,23.0,11.2,30.06,West,262,0.0,3.0,60,0.00,,,0.00,WeatherCatV1.10B1784,2013-02-19 12:55:00,
2013-02-19 08:00:00,23.6,11.0,30.06,SSE,162,0.0,4.0,58,0.00,,,0.00,WeatherCatV1.10B1784,2013-02-19 13:00:00,
2013-02-19 08:05:00,24.2,11.6,30.06,SSE,156,0.0,0.0,58,0.00,,,0.00,WeatherCatV1.10B1784,2013-02-19 13:05:00,
2013-02-19 08:10:00,24.9,11.9,30.06,SSE,156,0.0,1.0,57,0.00,,,0.00,WeatherCatV1.10B1784,2013-02-19 13:10:00,
2013-02-19 08:15:00,25.3,11.8,30.06,SSE,151,0.0,4.0,56,0.00,,,0.00,WeatherCatV1.10B1784,2013-02-19 13:15:00,
2013-02-19 08:20:00,25.7,11.8,30.06,SSE,150,4.0,5.0,55,0.00,,,0.00,WeatherCatV1.10B1784,2013-02-19 13:20:00,
2013-02-19 08:25:00,26.0,11.7,30.06,SSE,147,1.0,2.0,54,0.00,,,0.00,WeatherCatV1.10B1784,2013-02-19 13:25:00,
2013-02-19 08:30:00,26.3,11.9,30.06,SSE,148,0.0,3.0,54,0.00,,,0.00,WeatherCatV1.10B1784,2013-02-19 13:30:00,
2013-02-19 08:35:00,26.7,11.9,30.06,SSE,148,2.0,3.0,53,0.00,,,0.00,WeatherCatV1.10B1784,2013-02-19 13:35:00,
2013-02-19 08:40:00,27.1,11.8,30.06,SSE,148,2.0,5.0,52,0.00,,,0.00,WeatherCatV1.10B1784,2013-02-19 13:40:00,
2013-02-19 08:45:00,27.7,12.4,30.06,SSE,148,0.0,3.0,52,0.00,,,0.00,WeatherCatV1.10B1784,2013-02-19 13:45:00,
2013-02-19 08:50:00,28.3,12.5,30.06,SSE,148,0.0,2.0,51,0.00,,,0.00,WeatherCatV1.10B1784,2013-02-19 13:50:00,
2013-02-19 08:55:00,28.8,12.5,30.06,SSE,148,3.0,5.0,50,0.00,,,0.00,WeatherCatV1.10B1784,2013-02-19 13:55:00,
2013-02-19 09:00:00,29.3,13.0,30.06,SE,124,4.0,5.0,50,0.00,,,0.00,WeatherCatV1.10B1784,2013-02-19 14:00:00,
2013-02-19 09:05:00,29.8,13.5,30.05,South,175,2.0,6.0,50,0.00,,,0.00,WeatherCatV1.10B1784,2013-02-19 14:05:00,
2013-02-19 09:10:00,30.4,13.6,30.05,SE,144,5.0,5.0,49,0.00,,,0.00,WeatherCatV1.10B1784,2013-02-19 14:10:00,
2013-02-19 09:15:00,30.9,14.0,30.05,SE,140,3.0,7.0,49,0.00,,,0.00,WeatherCatV1.10B1784,2013-02-19 14:15:00,
2013-02-19 09:20:00,31.5,14.6,30.05,SSE,160,7.0,8.0,49,0.00,,,0.00,WeatherCatV1.10B1784,2013-02-19 14:20:00,
2013-02-19 09:25:00,32.1,15.6,30.05,SSE,150,0.0,7.0,50,0.00,,,0.00,WeatherCatV1.10B1784,2013-02-19 14:25:00,
2013-02-19 09:30:00,32.8,15.8,30.05,WSW,257,0.0,4.0,49,0.00,,,0.00,WeatherCatV1.10B1784,2013-02-19 14:30:00,
2013-02-19 09:35:00,33.5,16.9,30.05,South,171,1.0,3.0,50,0.00,,,0.00,WeatherCatV1.10B1784,2013-02-19 14:35:00,
2013-02-19 09:40:00,33.8,17.2,30.04,SSE,148,0.0,4.0,50,0.00,,,0.00,WeatherCatV1.10B1784,2013-02-19 14:40:00,
2013-02-19 09:45:00,34.2,17.5,30.03,SSE,148,0.0,2.0,50,0.00,,,0.00,WeatherCatV1.10B1784,2013-02-19 14:45:00,
2013-02-19 09:50:00,34.9,18.2,30.03,SSE,148,0.0,4.0,50,0.00,,,0.00,WeatherCatV1.10B1784,2013-02-19 14:50:00,
2013-02-19 09:55:00,35.5,18.3,30.03,SSE,148,2.0,5.0,49,0.00,,,0.00,WeatherCatV1.10B1784,2013-02-19 14:55:00,
2013-02-19 10:00:00,35.9,18.1,30.03,SSE,148,2.0,4.0,48,0.00,,,0.00,WeatherCatV1.10B1784,2013-02-19 15:00:00,
2013-02-19 10:05:00,36.5,19.2,30.02,SE,144,0.0,7.0,49,0.00,,,0.00,WeatherCatV1.10B1784,2013-02-19 15:05:00,
2013-02-19 10:10:00,37.0,19.6,30.03,SE,144,4.0,5.0,49,0.00,,,0.00,WeatherCatV1.10B1784,2013-02-19 15:10:00,
2013-02-19 10:15:00,37.3,19.4,30.02,SSE,150,5.0,5.0,48,0.00,,,0.00,WeatherCatV1.10B1784,2013-02-19 15:15:00,
2013-02-19 10:20:00,37.7,20.3,30.02,SSE,150,0.0,1.0,49,0.00,,,0.00,WeatherCatV1.10B1784,2013-02-19 15:20:00,
2013-02-19 10:25:00,38.2,20.7,30.02,SSE,150,1.0,3.0,49,0.00,,,0.00,WeatherCatV1.10B1784,2013-02-19 15:25:00,
2013-02-19 10:30:00,38.5,20.5,30.02,SSE,152,3.0,6.0,48,0.00,,,0.00,WeatherCatV1.10B1784,2013-02-19 15:30:00,
2013-02-19 10:35:00,38.8,20.8,30.02,SSE,159,0.0,8.0,48,0.00,,,0.00,WeatherCatV1.10B1784,2013-02-19 15:35:00,
2013-02-19 10:40:00,39.1,21.1,30.01,SSE,159,0.0,1.0,48,0.00,,,0.00,WeatherCatV1.10B1784,2013-02-19 15:40:00,
2013-02-19 10:45:00,39.5,21.5,30.01,SSE,148,0.0,4.0,48,0.00,,,0.00,WeatherCatV1.10B1784,2013-02-19 15:45:00,
2013-02-19 10:50:00,39.8,22.2,30.01,SSE,159,1.0,5.0,49,0.00,,,0.00,WeatherCatV1.10B1784,2013-02-19 15:50:00,
2013-02-19 10:55:00,40.1,23.0,30.02,SSE,157,1.0,6.0,50,0.00,,,0.00,WeatherCatV1.10B1784,2013-02-19 15:55:00,
2013-02-19 11:00:00,40.5,23.3,30.01,West,276,3.0,4.0,50,0.00,,,0.00,WeatherCatV1.10B1784,2013-02-19 16:00:00,
2013-02-19 11:05:00,40.7,24.0,30.01,SSE,149,2.0,5.0,51,0.00,,,0.00,WeatherCatV1.10B1784,2013-02-19 16:05:00,
2013-02-19 11:10:00,41.0,25.2,30.00,SE,139,0.0,2.0,53,0.00,,,0.00,WeatherCatV1.10B1784,2013-02-19 16:10:00,
2013-02-19 11:15:00,41.1,24.8,30.00,SE,140,1.0,1.0,52,0.00,,,0.00,WeatherCatV1.10B1784,2013-02-19 16:15:00,
2013-02-19 11:20:00,41.6,25.8,30.00,ESE,115,0.0,6.0,53,0.00,,,0.00,WeatherCatV1.10B1784,2013-02-19 16:20:00,
2013-02-19 11:25:00,42.2,26.8,29.99,SSE,166,6.0,11.0,54,0.00,,,0.00,WeatherCatV1.10B1784,2013-02-19 16:25:00,
2013-02-19 11:30:00,42.5,27.0,29.99,SSW,208,5.0,8.0,54,0.00,,,0.00,WeatherCatV1.10B1784,2013-02-19 16:30:00,
2013-02-19 11:35:00,42.8,26.9,29.98,SSE,152,2.0,7.0,53,0.00,,,0.00,WeatherCatV1.10B1784,2013-02-19 16:35:00,
2013-02-19 11:40:00,43.0,27.1,29.98,SSE,156,7.0,7.0,53,0.00,,,0.00,WeatherCatV1.10B1784,2013-02-19 16:40:00,
2013-02-19 11:45:00,42.9,27.4,29.97,SE,146,4.0,8.0,54,0.00,,,0.00,WeatherCatV1.10B1784,2013-02-19 16:45:00,
2013-02-19 11:50:00,42.9,27.4,29.97,SSE,153,5.0,6.0,54,0.00,,,0.00,WeatherCatV1.10B1784,2013-02-19 16:50:00,
2013-02-19 11:55:00,42.8,27.3,29.97,South,169,4.0,7.0,54,0.00,,,0.00,WeatherCatV1.10B1784,2013-02-19 16:55:00,
2013-02-19 12:00:00,42.9,27.9,29.97,SE,142,2.0,9.0,55,0.00,,,0.00,WeatherCatV1.10B1784,2013-02-19 17:00:00,
2013-02-19 12:05:00,42.8,27.8,29.96,SSE,164,1.0,7.0,55,0.00,,,0.00,WeatherCatV1.10B1784,2013-02-19 17:05:00,
2013-02-19 12:10:00,42.9,27.9,29.96,SSE,161,5.0,11.0,55,0.00,,,0.00,WeatherCatV1.10B1784,2013-02-19 17:10:00,
2013-02-19 12:15:00,42.9,27.9,29.95,SSE,149,7.0,7.0,55,0.00,,,0.00,WeatherCatV1.10B1784,2013-02-19 17:15:00,
2013-02-19 12:20:00,42.8,27.8,29.95,South,175,0.0,10.0,55,0.00,,,0.00,WeatherCatV1.10B1784,2013-02-19 17:20:00,
2013-02-19 12:25:00,43.0,28.0,29.94,SSE,161,12.0,12.0,55,0.00,,,0.00,WeatherCatV1.10B1784,2013-02-19 17:25:00,
2013-02-19 12:30:00,43.2,28.1,29.94,SSE,159,5.0,7.0,55,0.00,,,0.00,WeatherCatV1.10B1784,2013-02-19 17:30:00,
2013-02-19 12:35:00,43.7,28.2,29.94,SE,146,1.0,9.0,54,0.00,,,0.00,WeatherCatV1.10B1784,2013-02-19 17:35:00,
2013-02-19 12:40:00,44.1,28.5,29.94,SE,139,3.0,9.0,54,0.00,,,0.00,WeatherCatV1.10B1784,2013-02-19 17:40:00,
2013-02-19 12:45:00,43.9,28.3,29.93,ESE,117,9.0,11.0,54,0.00,,,0.00,WeatherCatV1.10B1784,2013-02-19 17:45:00,
2013-02-19 12:50:00,43.8,28.7,29.93,South,186,4.0,13.0,55,0.00,,,0.00,WeatherCatV1.10B1784,2013-02-19 17:50:00,
2013-02-19 12:55:00,43.9,28.8,29.93,SSE,158,11.0,13.0,55,0.00,,,0.00,WeatherCatV1.10B1784,2013-02-19 17:55:00,
2013-02-19 13:00:00,43.8,28.7,29.92,South,191,7.0,8.0,55,0.00,,,0.00,WeatherCatV1.10B1784,2013-02-19 18:00:00,
2013-02-19 13:05:00,43.9,28.8,29.92,SE,142,0.0,6.0,55,0.00,,,0.00,WeatherCatV1.10B1784,2013-02-19 18:05:00,
2013-02-19 13:10:00,44.0,29.3,29.92,SE,135,10.0,10.0,56,0.00,,,0.00,WeatherCatV1.10B1784,2013-02-19 18:10:00,
2013-02-19 13:15:00,43.9,29.2,29.92,SSE,158,3.0,12.0,56,0.00,,,0.00,WeatherCatV1.10B1784,2013-02-19 18:15:00,
2013-02-19 13:20:00,44.0,29.3,29.91,SSE,163,8.0,14.0,56,0.00,,,0.00,WeatherCatV1.10B1784,2013-02-19 18:20:00,
2013-02-19 13:25:00,44.0,29.8,29.91,South,176,4.0,10.0,57,0.00,,,0.00,WeatherCatV1.10B1784,2013-02-19 18:25:00,
2013-02-19 13:30:00,44.1,29.4,29.91,SSE,148,3.0,7.0,56,0.00,,,0.00,WeatherCatV1.10B1784,2013-02-19 18:30:00,
2013-02-19 13:35:00,44.2,29.9,29.91,SSE,157,0.0,3.0,57,0.00,,,0.00,WeatherCatV1.10B1784,2013-02-19 18:35:00,
2013-02-19 13:40:00,44.3,30.0,29.90,SSE,152,1.0,6.0,57,0.00,,,0.00,WeatherCatV1.10B1784,2013-02-19 18:40:00,
2013-02-19 13:45:00,44.4,30.1,29.90,SE,144,2.0,4.0,57,0.00,,,0.00,WeatherCatV1.10B1784,2013-02-19 18:45:00,
2013-02-19 13:50:00,44.6,30.3,29.89,East,99,4.0,8.0,57,0.00,,,0.00,WeatherCatV1.10B1784,2013-02-19 18:50:00,
2013-02-19 13:55:00,44.6,30.3,29.89,SE,146,1.0,9.0,57,0.00,,,0.00,WeatherCatV1.10B1784,2013-02-19 18:55:00,
2013-02-19 14:00:00,44.7,30.4,29.89,SSE,149,5.0,7.0,57,0.00,,,0.00,WeatherCatV1.10B1784,2013-02-19 19:00:00,
2013-02-19 14:05:00,44.6,30.3,29.88,SE,142,4.0,6.0,57,0.00,,,0.00,WeatherCatV1.10B1784,2013-02-19 19:05:00,
2013-02-19 14:10:00,44.7,30.4,29.88,South,176,2.0,4.0,57,0.00,,,0.00,WeatherCatV1.10B1784,2013-02-19 19:10:00,
2013-02-19 14:15:00,44.7,30.4,29.87,ESE,122,0.0,4.0,57,0.00,,,0.00,WeatherCatV1.10B1784,2013-02-19 19:15:00,
2013-02-19 14:20:00,44.7,30.4,29.87,SSE,155,4.0,9.0,57,0.00,,,0.00,WeatherCatV1.10B1784,2013-02-19 19:20:00,
2013-02-19 14:25:00,44.7,30.4,29.87,SE,136,8.0,8.0,57,0.00,,,0.00,WeatherCatV1.10B1784,2013-02-19 19:25:00,
2013-02-19 14:30:00,44.7,30.4,29.87,SSE,151,5.0,7.0,57,0.00,,,0.00,WeatherCatV1.10B1784,2013-02-19 19:30:00,
2013-02-19 14:35:00,44.8,30.5,29.86,SSW,193,6.0,8.0,57,0.00,,,0.00,WeatherCatV1.10B1784,2013-02-19 19:35:00,
2013-02-19 14:40:00,44.9,30.6,29.86,SSE,154,0.0,4.0,57,0.00,,,0.00,WeatherCatV1.10B1784,2013-02-19 19:40:00,
2013-02-19 14:42:00,44.9,30.6,29.86,South,169,8.0,8.0,57,0.00,,,0.00,WeatherCatV1.10B1784,2013-02-19 19:42:00,
2013-02-19 14:47:00,45.0,31.1,29.86,SSW,193,6.0,16.0,58,0.00,,,0.00,WeatherCatV1.10B1784,2013-02-19 19:47:00,
2013-02-19 14:52:00,45.1,31.6,29.85,SSE,158,7.0,14.0,59,0.00,,,0.00,WeatherCatV1.10B1784,2013-02-19 19:52:00,
2013-02-19 14:57:00,45.1,31.6,29.85,South,188,4.0,8.0,59,0.00,,,0.00,WeatherCatV1.10B1784,2013-02-19 19:57:00,
2013-02-19 15:02:00,44.9,31.5,29.85,South,181,3.0,6.0,59,0.00,,,0.00,WeatherCatV1.10B1784,2013-02-19 20:02:00,
2013-02-19 15:07:00,44.9,31.9,29.84,SE,146,4.0,7.0,60,0.00,,,0.00,WeatherCatV1.10B1784,2013-02-19 20:07:00,
2013-02-19 15:12:00,44.8,31.8,29.83,SSE,151,5.0,10.0,60,0.00,,,0.00,WeatherCatV1.10B1784,2013-02-19 20:12:00,
2013-02-19 15:17:00,44.7,31.7,29.83,East,94,0.0,10.0,60,0.00,,,0.00,WeatherCatV1.10B1784,2013-02-19 20:17:00,
2013-02-19 15:22:00,44.7,32.1,29.83,SSE,166,2.0,9.0,61,0.00,,,0.00,WeatherCatV1.10B1784,2013-02-19 20:22:00,
2013-02-19 15:27:00,44.6,32.0,29.82,SE,139,3.0,6.0,61,0.00,,,0.00,WeatherCatV1.10B1784,2013-02-19 20:27:00,
2013-02-19 15:32:00,44.6,32.4,29.82,SE,136,4.0,8.0,62,0.00,,,0.00,WeatherCatV1.10B1784,2013-02-19 20:32:00,
2013-02-19 15:37:00,44.7,32.5,29.82,SE,142,0.0,8.0,62,0.00,,,0.00,WeatherCatV1.10B1784,2013-02-19 20:37:00,
2013-02-19 15:42:00,44.7,32.9,29.81,SSE,148,6.0,8.0,63,0.00,,,0.00,WeatherCatV1.10B1784,2013-02-19 20:42:00,
2013-02-19 15:47:00,44.5,33.1,29.81,SSE,150,5.0,10.0,64,0.00,,,0.00,WeatherCatV1.10B1784,2013-02-19 20:47:00,
2013-02-19 15:52:00,44.2,33.6,29.81,SSW,198,12.0,12.0,66,0.00,,,0.00,WeatherCatV1.10B1784,2013-02-19 20:52:00,
2013-02-19 15:57:00,44.0,34.1,29.81,SSE,161,9.0,11.0,68,0.00,,,0.00,WeatherCatV1.10B1784,2013-02-19 20:57:00,
2013-02-19 16:02:00,43.7,34.6,29.80,South,174,8.0,13.0,70,0.00,,,0.00,WeatherCatV1.10B1784,2013-02-19 21:02:00,
2013-02-19 16:07:00,43.1,35.0,29.80,South,177,8.0,11.0,73,0.00,,,0.00,WeatherCatV1.10B1784,2013-02-19 21:07:00,
2013-02-19 16:12:00,42.6,35.6,29.80,SSE,165,8.0,10.0,76,0.00,,,0.01,WeatherCatV1.10B1784,2013-02-19 21:12:00,
2013-02-19 16:17:00,42.2,35.8,29.80,SSE,156,4.0,13.0,78,0.00,,,0.01,WeatherCatV1.10B1784,2013-02-19 21:17:00,
2013-02-19 16:22:00,41.8,36.1,29.79,SSE,150,3.0,9.0,80,0.00,,,0.01,WeatherCatV1.10B1784,2013-02-19 21:22:00,
2013-02-19 16:27:00,41.5,36.1,29.79,South,171,5.0,8.0,81,0.00,,,0.01,WeatherCatV1.10B1784,2013-02-19 21:27:00,
2013-02-19 16:32:00,41.2,36.1,29.79,South,173,5.0,8.0,82,0.00,,,0.01,WeatherCatV1.10B1784,2013-02-19 21:32:00,
2013-02-19 16:37:00,41.1,36.3,29.79,SSE,163,0.0,10.0,83,0.00,,,0.01,WeatherCatV1.10B1784,2013-02-19 21:37:00,
2013-02-19 16:42:00,40.9,36.1,29.78,South,179,4.0,7.0,83,0.00,,,0.01,WeatherCatV1.10B1784,2013-02-19 21:42:00,
2013-02-19 16:47:00,40.9,36.4,29.78,SSE,159,0.0,11.0,84,0.00,,,0.01,WeatherCatV1.10B1784,2013-02-19 21:47:00,
2013-02-19 16:52:00,40.8,36.3,29.78,South,170,2.0,9.0,84,0.00,,,0.01,WeatherCatV1.10B1784,2013-02-19 21:52:00,
2013-02-19 16:57:00,40.6,36.5,29.78,South,169,9.0,9.0,85,0.00,,,0.01,WeatherCatV1.10B1784,2013-02-19 21:57:00,
2013-02-19 17:02:00,40.5,36.4,29.78,South,186,2.0,6.0,85,0.00,,,0.01,WeatherCatV1.10B1784,2013-02-19 22:02:00,
2013-02-19 17:07:00,40.4,36.5,29.77,SSE,156,4.0,6.0,86,0.00,,,0.01,WeatherCatV1.10B1784,2013-02-19 22:07:00,
2013-02-19 17:12:00,40.2,36.6,29.77,SSE,161,0.0,0.0,87,0.00,,,0.01,WeatherCatV1.10B1784,2013-02-19 22:12:00,
2013-02-19 17:17:00,40.0,36.4,29.76,SSE,160,3.0,4.0,87,0.00,,,0.01,WeatherCatV1.10B1784,2013-02-19 22:17:00,
2013-02-19 17:22:00,39.9,36.6,29.76,SSE,163,0.0,0.0,88,0.00,,,0.01,WeatherCatV1.10B1784,2013-02-19 22:22:00,
2013-02-19 17:27:00,39.8,36.5,29.76,SSE,159,0.0,6.0,88,0.00,,,0.01,WeatherCatV1.10B1784,2013-02-19 22:27:00,
2013-02-19 17:32:00,39.7,36.7,29.76,SSE,159,2.0,4.0,89,0.00,,,0.01,WeatherCatV1.10B1784,2013-02-19 22:32:00,
2013-02-19 17:37:00,39.5,36.5,29.75,SSE,159,0.0,0.0,89,0.00,,,0.01,WeatherCatV1.10B1784,2013-02-19 22:37:00,
2013-02-19 17:42:00,39.5,36.5,29.75,SSE,160,0.0,3.0,89,0.00,,,0.01,WeatherCatV1.10B1784,2013-02-19 22:42:00,
2013-02-19 17:47:00,39.4,36.7,29.75,SSE,160,0.0,1.0,90,0.00,,,0.01,WeatherCatV1.10B1784,2013-02-19 22:47:00,
2013-02-19 17:52:00,39.3,36.6,29.75,SSE,160,0.0,0.0,90,0.00,,,0.01,WeatherCatV1.10B1784,2013-02-19 22:52:00,
2013-02-19 17:57:00,39.3,36.6,29.75,SSE,160,0.0,0.0,90,0.00,,,0.01,WeatherCatV1.10B1784,2013-02-19 22:57:00,
2013-02-19 18:02:00,39.2,36.5,29.74,SSE,160,2.0,3.0,90,0.00,,,0.01,WeatherCatV1.10B1784,2013-02-19 23:02:00,
2013-02-19 18:07:00,39.2,36.8,29.74,SSE,160,0.0,3.0,91,0.00,,,0.01,WeatherCatV1.10B1784,2013-02-19 23:07:00,
2013-02-19 18:12:00,39.1,36.7,29.73,SSE,160,0.0,0.0,91,0.00,,,0.01,WeatherCatV1.10B1784,2013-02-19 23:12:00,
2013-02-19 18:17:00,39.1,36.7,29.73,SSE,160,0.0,0.0,91,0.00,,,0.01,WeatherCatV1.10B1784,2013-02-19 23:17:00,
2013-02-19 18:22:00,39.1,36.7,29.73,SSE,160,0.0,0.0,91,0.00,,,0.01,WeatherCatV1.10B1784,2013-02-19 23:22:00,
2013-02-19 18:27:00,39.0,36.6,29.72,SSE,160,0.0,0.0,91,0.00,,,0.01,WeatherCatV1.10B1784,2013-02-19 23:27:00,
2013-02-19 18:32:00,39.0,36.9,29.72,SSE,160,0.0,0.0,92,0.00,,,0.01,WeatherCatV1.10B1784,2013-02-19 23:32:00,
2013-02-19 18:37:00,39.0,36.9,29.71,SSE,160,0.0,0.0,92,0.00,,,0.01,WeatherCatV1.10B1784,2013-02-19 23:37:00,
2013-02-19 18:42:00,38.9,36.8,29.71,SSE,160,0.0,0.0,92,0.00,,,0.01,WeatherCatV1.10B1784,2013-02-19 23:42:00,
2013-02-19 18:47:00,38.9,36.8,29.71,SSE,160,0.0,0.0,92,0.00,,,0.01,WeatherCatV1.10B1784,2013-02-19 23:47:00,
2013-02-19 18:52:00,38.8,36.7,29.70,SSE,160,0.0,0.0,92,0.00,,,0.01,WeatherCatV1.10B1784,2013-02-19 23:52:00,
2013-02-19 18:57:00,38.8,37.0,29.69,SSE,160,0.0,0.0,93,0.00,,,0.01,WeatherCatV1.10B1784,2013-02-19 23:57:00,
2013-02-19 19:02:00,38.8,37.0,29.69,SSE,160,0.0,0.0,93,0.00,,,0.01,WeatherCatV1.10B1784,2013-02-20 00:02:00,
2013-02-19 19:07:00,38.7,36.9,29.69,SSE,160,0.0,0.0,93,0.00,,,0.01,WeatherCatV1.10B1784,2013-02-20 00:07:00,
2013-02-19 19:12:00,38.7,36.9,29.69,SSE,160,0.0,0.0,93,0.00,,,0.01,WeatherCatV1.10B1784,2013-02-20 00:12:00,
2013-02-19 19:17:00,38.7,36.9,29.68,SSE,160,0.0,0.0,93,0.00,,,0.01,WeatherCatV1.10B1784,2013-02-20 00:17:00,
2013-02-19 19:22:00,38.6,36.8,29.68,SSE,160,0.0,0.0,93,0.00,,,0.01,WeatherCatV1.10B1784,2013-02-20 00:22:00,
2013-02-19 19:27:00,38.6,36.8,29.68,SSE,160,0.0,0.0,93,0.00,,,0.01,WeatherCatV1.10B1784,2013-02-20 00:27:00,
2013-02-19 19:32:00,38.6,36.8,29.67,SSE,160,0.0,0.0,93,0.00,,,0.01,WeatherCatV1.10B1784,2013-02-20 00:32:00,
2013-02-19 19:37:00,38.6,36.8,29.67,SSE,160,0.0,0.0,93,0.00,,,0.01,WeatherCatV1.10B1784,2013-02-20 00:37:00,
2013-02-19 19:42:00,38.7,36.9,29.66,SSE,160,0.0,0.0,93,0.00,,,0.01,WeatherCatV1.10B1784,2013-02-20 00:42:00,
2013-02-19 19:47:00,38.7,36.9,29.66,SSE,160,0.0,0.0,93,0.00,,,0.01,WeatherCatV1.10B1784,2013-02-20 00:47:00,
2013-02-19 19:52:00,38.5,36.7,29.66,SSE,160,0.0,0.0,93,0.00,,,0.01,WeatherCatV1.10B1784,2013-02-20 00:52:00,
2013-02-19 19:57:00,38.2,36.4,29.65,SSE,160,0.0,0.0,93,0.00,,,0.01,WeatherCatV1.10B1784,2013-02-20 00:57:00,
2013-02-19 20:02:00,38.1,36.3,29.65,SSE,160,0.0,0.0,93,0.00,,,0.01,WeatherCatV1.10B1784,2013-02-20 01:02:00,
2013-02-19 20:07:00,38.2,36.6,29.65,SSE,160,0.0,0.0,94,0.00,,,0.01,WeatherCatV1.10B1784,2013-02-20 01:07:00,
2013-02-19 20:12:00,38.2,36.6,29.65,SSE,160,0.0,0.0,94,0.00,,,0.01,WeatherCatV1.10B1784,2013-02-20 01:12:00,
2013-02-19 20:17:00,38.0,36.4,29.64,SSE,160,0.0,0.0,94,0.00,,,0.01,WeatherCatV1.10B1784,2013-02-20 01:17:00,
2013-02-19 20:22:00,38.0,36.4,29.63,SSE,160,0.0,0.0,94,0.00,,,0.01,WeatherCatV1.10B1784,2013-02-20 01:22:00,
2013-02-19 20:27:00,38.1,36.5,29.64,SSE,160,0.0,0.0,94,0.00,,,0.01,WeatherCatV1.10B1784,2013-02-20 01:27:00,
2013-02-19 20:32:00,38.0,36.4,29.63,SSE,160,0.0,0.0,94,0.00,,,0.01,WeatherCatV1.10B1784,2013-02-20 01:32:00,
2013-02-19 20:37:00,37.9,36.3,29.63,SSE,160,0.0,0.0,94,0.00,,,0.01,WeatherCatV1.10B1784,2013-02-20 01:37:00,
2013-02-19 20:42:00,37.8,36.2,29.63,SSE,160,0.0,0.0,94,0.00,,,0.01,WeatherCatV1.10B1784,2013-02-20 01:42:00,
2013-02-19 20:47:00,38.0,36.4,29.62,SSE,160,0.0,0.0,94,0.00,,,0.01,WeatherCatV1.10B1784,2013-02-20 01:47:00,
2013-02-19 20:52:00,38.3,36.7,29.61,SSE,160,0.0,0.0,94,0.00,,,0.01,WeatherCatV1.10B1784,2013-02-20 01:52:00,
2013-02-19 20:57:00,38.1,36.5,29.61,SSE,160,0.0,0.0,94,0.00,,,0.01,WeatherCatV1.10B1784,2013-02-20 01:57:00,
2013-02-19 21:02:00,37.6,36.0,29.60,SSE,160,0.0,0.0,94,0.00,,,0.01,WeatherCatV1.10B1784,2013-02-20 02:02:00,
2013-02-19 21:07:00,37.6,36.0,29.59,SSE,160,0.0,1.0,94,0.00,,,0.01,WeatherCatV1.10B1784,2013-02-20 02:07:00,
2013-02-19 21:12:00,37.6,36.0,29.60,SSE,160,0.0,0.0,94,0.00,,,0.01,WeatherCatV1.10B1784,2013-02-20 02:12:00,
2013-02-19 21:17:00,37.5,35.9,29.59,SSE,160,0.0,0.0,94,0.00,,,0.01,WeatherCatV1.10B1784,2013-02-20 02:17:00,
2013-02-19 21:22:00,37.3,35.7,29.59,SSE,160,0.0,0.0,94,0.00,,,0.01,WeatherCatV1.10B1784,2013-02-20 02:22:00,
2013-02-19 21:27:00,37.3,35.7,29.60,SSE,160,0.0,0.0,94,0.00,,,0.01,WeatherCatV1.10B1784,2013-02-20 02:27:00,
2013-02-19 21:32:00,37.2,35.6,29.60,SSE,160,0.0,0.0,94,0.00,,,0.01,WeatherCatV1.10B1784,2013-02-20 02:32:00,
2013-02-19 21:37:00,37.2,35.6,29.60,SSE,160,0.0,0.0,94,0.00,,,0.01,WeatherCatV1.10B1784,2013-02-20 02:37:00,
2013-02-19 21:42:00,37.1,35.5,29.60,SSE,160,0.0,0.0,94,0.00,,,0.01,WeatherCatV1.10B1784,2013-02-20 02:42:00,
2013-02-19 21:47:00,37.1,35.5,29.59,SSE,160,0.0,0.0,94,0.00,,,0.01,WeatherCatV1.10B1784,2013-02-20 02:47:00,
2013-02-19 21:52:00,37.9,36.6,29.59,WSW,249,1.0,1.0,95,0.00,,,0.01,WeatherCatV1.10B1784,2013-02-20 02:52:00,
2013-02-19 21:57:00,38.6,37.3,29.60,SW,214,0.0,5.0,95,0.00,,,0.01,WeatherCatV1.10B1784,2013-02-20 02:57:00,
2013-02-19 22:02:00,39.1,37.8,29.59,SW,219,3.0,4.0,95,0.00,,,0.01,WeatherCatV1.10B1784,2013-02-20 03:02:00,
2013-02-19 22:07:00,39.7,38.4,29.59,SW,225,0.0,5.0,95,0.00,,,0.01,WeatherCatV1.10B1784,2013-02-20 03:07:00,
2013-02-19 22:12:00,39.9,38.6,29.59,SW,234,4.0,6.0,95,0.00,,,0.01,WeatherCatV1.10B1784,2013-02-20 03:12:00,
2013-02-19 22:17:00,40.0,38.7,29.58,WSW,238,3.0,5.0,95,0.00,,,0.01,WeatherCatV1.10B1784,2013-02-20 03:17:00,
2013-02-19 22:22:00,40.1,38.8,29.58,WSW,238,0.0,5.0,95,0.00,,,0.01,WeatherCatV1.10B1784,2013-02-20 03:22:00,
2013-02-19 22:27:00,40.1,38.8,29.57,WSW,238,0.0,3.0,95,0.00,,,0.01,WeatherCatV1.10B1784,2013-02-20 03:27:00,
2013-02-19 22:32:00,40.0,38.4,29.57,WSW,238,0.0,4.0,94,0.00,,,0.01,WeatherCatV1.10B1784,2013-02-20 03:32:00,
2013-02-19 22:37:00,40.0,38.4,29.56,WSW,241,1.0,8.0,94,0.00,,,0.01,WeatherCatV1.10B1784,2013-02-20 03:37:00,
2013-02-19 22:42:00,40.0,38.1,29.57,WSW,238,3.0,7.0,93,0.00,,,0.01,WeatherCatV1.10B1784,2013-02-20 03:42:00,
2013-02-19 22:47:00,39.9,38.0,29.57,WSW,238,0.0,7.0,93,0.00,,,0.01,WeatherCatV1.10B1784,2013-02-20 03:47:00,
2013-02-19 22:52:00,39.9,38.0,29.56,WSW,250,2.0,5.0,93,0.00,,,0.01,WeatherCatV1.10B1784,2013-02-20 03:52:00,
2013-02-19 22:57:00,40.1,38.0,29.56,SW,222,5.0,6.0,92,0.00,,,0.01,WeatherCatV1.10B1784,2013-02-20 03:57:00,
2013-02-19 23:02:00,40.1,38.0,29.56,SW,223,3.0,6.0,92,0.00,,,0.01,WeatherCatV1.10B1784,2013-02-20 04:02:00,
2013-02-19 23:07:00,40.0,37.6,29.57,WSW,253,0.0,5.0,91,0.00,,,0.01,WeatherCatV1.10B1784,2013-02-20 04:07:00,
2013-02-19 23:12:00,40.0,37.6,29.57,West,273,0.0,0.0,91,0.00,,,0.01,WeatherCatV1.10B1784,2013-02-20 04:12:00,
2013-02-19 23:17:00,39.9,37.5,29.56,West,277,7.0,7.0,91,0.00,,,0.01,WeatherCatV1.10B1784,2013-02-20 04:17:00,
2013-02-19 23:22:00,40.0,37.6,29.57,West,262,2.0,6.0,91,0.00,,,0.01,WeatherCatV1.10B1784,2013-02-20 04:22:00,
2013-02-19 23:27:00,39.9,37.2,29.56,WSW,257,6.0,6.0,90,0.00,,,0.01,WeatherCatV1.10B1784,2013-02-20 04:27:00,
2013-02-19 23:32:00,39.9,37.2,29.56,West,271,7.0,9.0,90,0.00,,,0.01,WeatherCatV1.10B1784,2013-02-20 04:32:00,
2013-02-19 23:37:00,39.8,37.1,29.56,SW,236,6.0,8.0,90,0.00,,,0.01,WeatherCatV1.10B1784,2013-02-20 04:37:00,
2013-02-19 23:42:00,39.7,36.7,29.56,WNW,291,0.0,10.0,89,0.00,,,0.01,WeatherCatV1.10B1784,2013-02-20 04:42:00,
2013-02-19 23:47:00,39.7,36.7,29.56,SW,235,1.0,7.0,89,0.00,,,0.01,WeatherCatV1.10B1784,2013-02-20 04:47:00,
2013-02-19 23:52:00,39.5,36.5,29.56,SW,234,0.0,0.0,89,0.00,,,0.01,WeatherCatV1.10B1784,2013-02-20 04:52:00,
2013-02-19 23:57:00,39.2,36.2,29.55,SW,234,0.0,1.0,89,0.00,,,0.01,WeatherCatV1.10B1784,2013-02-20 04:57:00,